Salyer, California
Current Conditions -  °F | °C
As of 9:53 AM on Tuesday 21 Oct 2014 (Local Time) from KACV Reporting Station
Clear Clear  
Wind Chill: 59°   Ceiling: Unl
Heat Index: 59°   Visibility: 10mi
Dew Point: 48°   Wind: 7mph
Humidity: 67%   Direction: 150°SSE
Pressure: 30.11"   Gusts: NA
Location:  40.89°N, 123.59°W
Report Text: KACV 211653Z AUTO 15006KT 10SM CLR 15/09 A3011 RMK AO2 SLP202 T01500089
Loading
Personal Weather Stations






























Interactive Weather Map
Tropical Storm Tracking
New forecast layout! Learn more

10-Day Weather Forecast

Advertisements
Track Severe Weather on mobile